CheckWX is a tool to help pilots better visualize weather data.  It is not intended as a substitute for an official pre-flight weather briefing.

01:05:17 UTC

ETNL METAR
Rostock-Laage Airport
Rostock, Germany
Current

45 mins ago

ETNL 240020Z 21004KT 9999 00/M07 Q1039 BLU+
Observed
Feb-24 @ 00:20 UTC
Wind
  • 210° at 4 KTS
Visibility
10,000+ meters
Temperature
C / 32°F
Dewpoint
-7°C / 19°F
Humidity
60%
Altimeter
30.68" Hg
Pressure
1038.91 hPa
Previous

2 hours ago

ETNL 232320Z 20005KT 9999 FEW350 00/M07 Q1039 BLU+
Observed
Feb-23 @ 23:20 UTC
Wind
  • 200° at 5 KTS
Visibility
10,000+ meters
Flight Rules
VFR
Cloud Levels
  • Few at 35,000' AGL
Temperature
C / 32°F
Dewpoint
-7°C / 19°F
Humidity
60%
Altimeter
30.68" Hg
Pressure
1038.91 hPa
Previous

3 hours ago

ETNL 232220Z 22005KT 9999 FEW360 01/M07 Q1039 BLU+
Observed
Feb-23 @ 22:20 UTC
Wind
  • 220° at 5 KTS
Visibility
10,000+ meters
Flight Rules
VFR
Cloud Levels
  • Few at 36,000' AGL
Temperature
C / 34°F
Dewpoint
-7°C / 19°F
Humidity
56%
Altimeter
30.68" Hg
Pressure
1038.91 hPa